createdAt,value
2019-01-13T00:03:03.351Z,2.8
2019-01-13T00:08:03.358Z,2.7
2019-01-13T00:13:03.353Z,2.7
2019-01-13T00:18:03.343Z,2.7
2019-01-13T00:23:03.346Z,2.7
2019-01-13T00:28:03.362Z,2.7
2019-01-13T00:33:03.418Z,2.7
2019-01-13T00:38:03.357Z,2.7
2019-01-13T00:43:03.358Z,2.7
2019-01-13T00:48:03.364Z,2.7
2019-01-13T00:53:03.375Z,2.7
2019-01-13T00:58:03.375Z,2.7
2019-01-13T01:03:03.387Z,2.7
2019-01-13T01:08:03.338Z,2.7
2019-01-13T01:13:03.386Z,2.7
2019-01-13T01:18:03.377Z,2.7
2019-01-13T01:23:03.393Z,2.6
2019-01-13T01:28:03.391Z,2.5
2019-01-13T01:33:03.389Z,2.6
2019-01-13T01:38:03.398Z,2.5
2019-01-13T01:43:03.400Z,2.5
2019-01-13T01:48:03.404Z,2.5
2019-01-13T01:53:03.388Z,2.5
2019-01-13T01:58:03.582Z,2.5
2019-01-13T02:03:03.413Z,2.4
2019-01-13T02:08:03.413Z,2.3
2019-01-13T02:13:03.424Z,2.3
2019-01-13T02:18:03.414Z,2.3
2019-01-13T02:23:03.426Z,2.3
2019-01-13T02:28:03.391Z,2.2
2019-01-13T02:33:03.416Z,2.2
2019-01-13T02:38:03.542Z,2.2
2019-01-13T02:43:03.425Z,2.2
2019-01-13T02:48:03.430Z,2.2
2019-01-13T02:53:03.428Z,2.2
2019-01-13T02:58:03.435Z,2.2
2019-01-13T03:03:03.433Z,2.2
2019-01-13T03:08:03.427Z,2.2
2019-01-13T03:13:03.444Z,2.3
2019-01-13T03:18:03.453Z,2.3
2019-01-13T03:23:03.437Z,2.3
2019-01-13T03:28:03.444Z,2.3
2019-01-13T03:33:03.627Z,2.4
2019-01-13T03:38:03.430Z,2.4
2019-01-13T03:43:03.576Z,2.4
2019-01-13T03:48:03.467Z,2.5
2019-01-13T03:53:03.461Z,2.5
2019-01-13T03:58:03.581Z,2.5
2019-01-13T04:03:03.580Z,2.5
2019-01-13T04:08:03.471Z,2.5
2019-01-13T04:13:03.595Z,2.5
2019-01-13T04:18:03.460Z,2.6
2019-01-13T04:23:03.588Z,2.6
2019-01-13T04:28:03.600Z,2.6
2019-01-13T04:33:03.461Z,2.6
2019-01-13T04:38:03.487Z,2.6
2019-01-13T04:43:03.619Z,2.6
2019-01-13T04:48:03.586Z,2.6
2019-01-13T04:53:03.589Z,2.6
2019-01-13T04:58:03.495Z,2.7
2019-01-13T05:03:03.614Z,2.7
2019-01-13T05:08:04.535Z,2.7
2019-01-13T05:13:06.499Z,2.7
2019-01-13T05:18:03.504Z,2.7
2019-01-13T05:23:03.508Z,2.7
2019-01-13T05:28:03.522Z,2.8
2019-01-13T05:33:03.658Z,2.8
2019-01-13T05:38:03.524Z,2.8
2019-01-13T05:43:03.647Z,2.8
2019-01-13T05:48:03.529Z,2.8
2019-01-13T05:53:03.529Z,2.9
2019-01-13T05:58:03.526Z,2.9
2019-01-13T06:03:03.529Z,2.9
2019-01-13T06:08:03.525Z,2.9
2019-01-13T06:13:03.687Z,2.9
2019-01-13T06:18:06.287Z,2.9
2019-01-13T06:23:04.523Z,3
2019-01-13T06:28:03.545Z,3
2019-01-13T06:33:03.640Z,3
2019-01-13T06:38:03.791Z,3
2019-01-13T06:43:03.558Z,3
2019-01-13T06:48:03.557Z,3
2019-01-13T06:53:03.670Z,3
2019-01-13T06:58:03.560Z,3
2019-01-13T07:03:03.562Z,2.9
2019-01-13T07:08:06.561Z,2.9
2019-01-13T07:13:03.564Z,2.9
2019-01-13T07:18:03.557Z,2.9
2019-01-13T07:23:06.562Z,2.9
2019-01-13T07:28:03.588Z,2.9
2019-01-13T07:33:03.544Z,2.9
2019-01-13T07:38:04.767Z,2.9
2019-01-13T07:43:03.597Z,2.9
2019-01-13T07:48:03.854Z,3
2019-01-13T07:53:03.596Z,3
2019-01-13T07:58:03.803Z,3.1
2019-01-13T08:03:03.832Z,3.1
2019-01-13T08:08:03.602Z,3.2
2019-01-13T08:13:03.748Z,3.3
2019-01-13T08:18:03.609Z,3.3
2019-01-13T08:23:03.724Z,3.4
2019-01-13T08:28:03.627Z,3.4
2019-01-13T08:33:03.625Z,3.5
2019-01-13T08:38:03.628Z,3.6
2019-01-13T08:43:03.649Z,3.6
2019-01-13T08:48:03.613Z,3.7
2019-01-13T08:53:03.669Z,3.7
2019-01-13T08:58:03.627Z,3.7
2019-01-13T09:03:03.631Z,3.7
2019-01-13T09:08:03.636Z,3.7
2019-01-13T09:13:03.642Z,3.7
2019-01-13T09:18:03.829Z,3.7
2019-01-13T09:23:03.657Z,3.7
2019-01-13T09:28:03.819Z,3.7
2019-01-13T09:33:03.641Z,3.8
2019-01-13T09:38:03.647Z,3.8
2019-01-13T09:43:03.678Z,3.9
2019-01-13T09:48:03.669Z,4
2019-01-13T09:53:03.681Z,4
2019-01-13T09:58:03.661Z,4.1
2019-01-13T10:03:03.668Z,4.1
2019-01-13T10:08:03.694Z,4.2
2019-01-13T10:13:03.681Z,4.2
2019-01-13T10:18:03.677Z,4.3
2019-01-13T10:23:03.710Z,4.3
2019-01-13T10:28:03.687Z,4.3
2019-01-13T10:33:03.677Z,4.4
2019-01-13T10:38:03.746Z,4.4
2019-01-13T10:43:03.678Z,4.5
2019-01-13T10:48:03.692Z,4.5
2019-01-13T10:53:03.801Z,4.5
2019-01-13T10:58:03.673Z,4.5
2019-01-13T11:03:03.706Z,4.5
2019-01-13T11:08:10.809Z,4.5
2019-01-13T11:13:03.667Z,4.6
2019-01-13T11:18:03.712Z,4.6
2019-01-13T11:23:03.717Z,4.6
2019-01-13T11:28:03.727Z,4.7
2019-01-13T11:33:09.278Z,4.7
2019-01-13T11:38:03.723Z,4.7
2019-01-13T11:43:03.762Z,4.8
2019-01-13T11:48:03.760Z,4.8
2019-01-13T11:53:03.733Z,4.9
2019-01-13T11:58:03.735Z,4.9
2019-01-13T12:03:06.680Z,5
2019-01-13T12:08:03.765Z,5
2019-01-13T12:13:03.748Z,5
2019-01-13T12:18:03.755Z,5
2019-01-13T12:23:03.743Z,5
2019-01-13T12:28:03.744Z,5.1
2019-01-13T12:33:03.732Z,5.1
2019-01-13T12:38:03.753Z,5
2019-01-13T12:43:03.749Z,5
2019-01-13T12:48:03.801Z,5
2019-01-13T12:53:03.750Z,5
2019-01-13T12:58:03.758Z,5
2019-01-13T13:03:03.745Z,5
2019-01-13T13:08:03.828Z,5
2019-01-13T13:13:03.758Z,5
2019-01-13T13:18:03.749Z,4.9
2019-01-13T13:23:04.330Z,4.9
2019-01-13T13:28:03.763Z,4.9
2019-01-13T13:33:03.777Z,5
2019-01-13T13:38:03.774Z,5
2019-01-13T13:43:03.784Z,5
2019-01-13T13:48:03.780Z,5
2019-01-13T13:53:03.785Z,4.9
2019-01-13T13:58:03.768Z,4.9
2019-01-13T14:03:03.809Z,4.9
2019-01-13T14:08:03.903Z,4.9
2019-01-13T14:13:03.797Z,4.9
2019-01-13T14:18:03.766Z,4.8
2019-01-13T14:23:03.772Z,4.8
2019-01-13T14:28:03.836Z,4.7
2019-01-13T14:33:03.797Z,4.7
2019-01-13T14:38:03.817Z,4.6
2019-01-13T14:43:03.825Z,4.6
2019-01-13T14:48:03.878Z,4.6
2019-01-13T14:53:03.776Z,4.6
2019-01-13T14:58:04.022Z,4.6
2019-01-13T15:03:03.836Z,4.6
2019-01-13T15:08:03.814Z,4.6
2019-01-13T15:13:03.841Z,4.6
2019-01-13T15:18:03.848Z,4.6
2019-01-13T15:23:03.911Z,4.6
2019-01-13T15:28:03.846Z,4.7
2019-01-13T15:33:03.839Z,4.7
2019-01-13T15:38:03.856Z,4.7
2019-01-13T15:43:03.907Z,4.8
2019-01-13T15:48:03.844Z,4.8
2019-01-13T15:53:03.858Z,4.8
2019-01-13T15:58:03.850Z,4.8
2019-01-13T16:03:03.898Z,4.7
2019-01-13T16:08:03.977Z,4.7
2019-01-13T16:13:03.962Z,4.7
2019-01-13T16:18:03.917Z,4.7
2019-01-13T16:23:03.855Z,4.7
2019-01-13T16:28:03.868Z,4.8
2019-01-13T16:33:03.867Z,4.8
2019-01-13T16:38:03.867Z,4.8
2019-01-13T16:43:03.879Z,4.8
2019-01-13T16:48:03.893Z,4.8
2019-01-13T16:53:05.868Z,4.8
2019-01-13T16:58:03.860Z,4.7
2019-01-13T17:03:03.889Z,4.7
2019-01-13T17:08:03.895Z,4.7
2019-01-13T17:13:03.956Z,4.7
2019-01-13T17:18:04.159Z,4.7
2019-01-13T17:23:03.915Z,4.7
2019-01-13T17:28:04.075Z,4.6
2019-01-13T17:33:04.043Z,4.6
2019-01-13T17:38:03.912Z,4.6
2019-01-13T17:43:04.191Z,4.6
2019-01-13T17:48:03.921Z,4.5
2019-01-13T17:53:04.049Z,4.5
2019-01-13T17:58:04.009Z,4.5
2019-01-13T18:03:04.009Z,4.5
2019-01-13T18:08:05.121Z,4.5
2019-01-13T18:13:03.935Z,4.5
2019-01-13T18:18:03.939Z,4.5
2019-01-13T18:23:03.975Z,4.5
2019-01-13T18:28:03.955Z,4.5
2019-01-13T18:33:03.990Z,4.5
2019-01-13T18:38:03.938Z,4.5
2019-01-13T18:43:03.989Z,4.5
2019-01-13T18:48:04.305Z,4.6
2019-01-13T18:53:03.949Z,4.6
2019-01-13T18:58:03.935Z,4.7
2019-01-13T19:03:03.990Z,4.7
2019-01-13T19:08:03.923Z,4.7
2019-01-13T19:13:04.016Z,4.8
2019-01-13T19:18:03.974Z,4.8
2019-01-13T19:23:04.047Z,4.8
2019-01-13T19:28:04.020Z,4.8
2019-01-13T19:33:03.960Z,4.8
2019-01-13T19:38:04.116Z,4.8
2019-01-13T19:43:04.197Z,4.8
2019-01-13T19:48:03.998Z,4.8
2019-01-13T19:53:04.431Z,4.8
2019-01-13T19:58:03.982Z,4.8
2019-01-13T20:03:04.069Z,4.8
2019-01-13T20:08:04.161Z,4.8
2019-01-13T20:13:04.006Z,4.8
2019-01-13T20:18:04.406Z,4.9
2019-01-13T20:23:04.002Z,4.9
2019-01-13T20:28:04.754Z,4.9
2019-01-13T20:33:04.055Z,5
2019-01-13T20:38:04.011Z,5
2019-01-13T20:43:04.098Z,5
2019-01-13T20:48:04.013Z,5
2019-01-13T20:53:04.815Z,5.1
2019-01-13T20:58:04.051Z,5.1
2019-01-13T21:03:05.629Z,5.2
2019-01-13T21:08:04.026Z,5.2
2019-01-13T21:13:04.165Z,5.3
2019-01-13T21:18:04.042Z,5.3
2019-01-13T21:23:04.054Z,5.4
2019-01-13T21:28:04.355Z,5.4
2019-01-13T21:33:04.056Z,5.5
2019-01-13T21:38:04.206Z,5.5
2019-01-13T21:43:04.253Z,5.5
2019-01-13T21:48:04.169Z,5.6
2019-01-13T21:53:04.226Z,5.6
2019-01-13T21:58:04.249Z,5.6
2019-01-13T22:03:04.049Z,5.7
2019-01-13T22:08:04.325Z,5.7
2019-01-13T22:13:04.042Z,5.7
2019-01-13T22:18:04.062Z,5.7
2019-01-13T22:23:04.085Z,5.7
2019-01-13T22:28:04.107Z,5.8
2019-01-13T22:33:04.076Z,5.8
2019-01-13T22:38:04.093Z,5.8
2019-01-13T22:43:04.063Z,5.8
2019-01-13T22:48:04.104Z,5.8
2019-01-13T22:53:04.076Z,5.8
2019-01-13T22:58:04.089Z,5.8
2019-01-13T23:03:04.081Z,5.8
2019-01-13T23:08:04.209Z,5.8
2019-01-13T23:13:04.115Z,5.8
2019-01-13T23:18:04.288Z,5.8
2019-01-13T23:23:04.084Z,5.7
2019-01-13T23:28:04.115Z,5.7
2019-01-13T23:33:04.101Z,5.7
2019-01-13T23:38:04.088Z,5.7
2019-01-13T23:43:04.100Z,5.8
2019-01-13T23:48:04.086Z,5.8
2019-01-13T23:53:04.122Z,5.8
2019-01-13T23:58:04.113Z,5.8
